sensor_id;sensor_type;location;lat;lon;timestamp;P1;durP1;ratioP1;P2;durP2;ratioP2
69900;SDS011;57183;50.930;5.406;2022-10-29T00:01:14;18.40;;;8.45;;
69900;SDS011;57183;50.930;5.406;2022-10-29T00:03:39;16.52;;;7.95;;
69900;SDS011;57183;50.930;5.406;2022-10-29T00:06:06;18.52;;;7.10;;
69900;SDS011;57183;50.930;5.406;2022-10-29T00:08:35;16.27;;;7.50;;
69900;SDS011;57183;50.930;5.406;2022-10-29T00:11:15;10.98;;;6.72;;
69900;SDS011;57183;50.930;5.406;2022-10-29T00:13:43;16.45;;;6.75;;
69900;SDS011;57183;50.930;5.406;2022-10-29T00:16:11;18.17;;;7.93;;
69900;SDS011;57183;50.930;5.406;2022-10-29T00:18:38;18.40;;;7.53;;
69900;SDS011;57183;50.930;5.406;2022-10-29T00:21:06;22.95;;;9.45;;
69900;SDS011;57183;50.930;5.406;2022-10-29T00:23:34;19.02;;;9.15;;
69900;SDS011;57183;50.930;5.406;2022-10-29T00:26:00;15.52;;;8.32;;
69900;SDS011;57183;50.930;5.406;2022-10-29T00:28:27;14.77;;;7.97;;
69900;SDS011;57183;50.930;5.406;2022-10-29T00:30:53;20.77;;;9.10;;
69900;SDS011;57183;50.930;5.406;2022-10-29T00:33:19;18.55;;;8.25;;
69900;SDS011;57183;50.930;5.406;2022-10-29T00:35:55;19.15;;;7.38;;
69900;SDS011;57183;50.930;5.406;2022-10-29T00:38:22;16.60;;;7.63;;
69900;SDS011;57183;50.930;5.406;2022-10-29T00:40:48;17.90;;;7.90;;
69900;SDS011;57183;50.930;5.406;2022-10-29T00:43:14;15.82;;;9.10;;
69900;SDS011;57183;50.930;5.406;2022-10-29T00:45:43;14.02;;;8.52;;
69900;SDS011;57183;50.930;5.406;2022-10-29T00:48:13;16.60;;;7.82;;
69900;SDS011;57183;50.930;5.406;2022-10-29T00:50:39;12.43;;;7.88;;
69900;SDS011;57183;50.930;5.406;2022-10-29T00:53:05;15.65;;;8.35;;
69900;SDS011;57183;50.930;5.406;2022-10-29T00:55:31;15.90;;;8.15;;
69900;SDS011;57183;50.930;5.406;2022-10-29T00:57:56;17.25;;;7.88;;
69900;SDS011;57183;50.930;5.406;2022-10-29T01:00:22;16.48;;;8.18;;
69900;SDS011;57183;50.930;5.406;2022-10-29T01:02:48;27.50;;;8.35;;
69900;SDS011;57183;50.930;5.406;2022-10-29T01:05:14;20.33;;;8.45;;
69900;SDS011;57183;50.930;5.406;2022-10-29T01:07:45;17.80;;;8.63;;
69900;SDS011;57183;50.930;5.406;2022-10-29T01:10:11;20.77;;;8.52;;
69900;SDS011;57183;50.930;5.406;2022-10-29T01:12:46;16.45;;;8.63;;
69900;SDS011;57183;50.930;5.406;2022-10-29T01:15:22;14.20;;;8.10;;
69900;SDS011;57183;50.930;5.406;2022-10-29T01:25:54;19.60;;;8.43;;
69900;SDS011;57183;50.930;5.406;2022-10-29T01:31:16;18.15;;;7.93;;
69900;SDS011;57183;50.930;5.406;2022-10-29T01:38:57;17.20;;;9.25;;
69900;SDS011;57183;50.930;5.406;2022-10-29T01:44:36;20.20;;;8.48;;
69900;SDS011;57183;50.930;5.406;2022-10-29T01:47:19;20.98;;;8.32;;
69900;SDS011;57183;50.930;5.406;2022-10-29T01:49:50;13.38;;;7.68;;
69900;SDS011;57183;50.930;5.406;2022-10-29T01:52:23;18.48;;;8.57;;
69900;SDS011;57183;50.930;5.406;2022-10-29T01:54:51;16.23;;;8.63;;
69900;SDS011;57183;50.930;5.406;2022-10-29T01:57:27;15.73;;;8.23;;
69900;SDS011;57183;50.930;5.406;2022-10-29T02:10:32;16.38;;;8.77;;
69900;SDS011;57183;50.930;5.406;2022-10-29T02:13:02;20.92;;;10.68;;
69900;SDS011;57183;50.930;5.406;2022-10-29T02:15:35;21.70;;;8.80;;
69900;SDS011;57183;50.930;5.406;2022-10-29T02:18:13;17.75;;;8.73;;
69900;SDS011;57183;50.930;5.406;2022-10-29T02:20:41;13.63;;;8.63;;
69900;SDS011;57183;50.930;5.406;2022-10-29T02:23:08;16.13;;;8.82;;
69900;SDS011;57183;50.930;5.406;2022-10-29T02:25:34;20.45;;;9.55;;
69900;SDS011;57183;50.930;5.406;2022-10-29T02:28:00;13.93;;;8.60;;
69900;SDS011;57183;50.930;5.406;2022-10-29T02:30:26;15.48;;;8.73;;
69900;SDS011;57183;50.930;5.406;2022-10-29T02:32:51;16.08;;;9.00;;
69900;SDS011;57183;50.930;5.406;2022-10-29T02:35:17;9.77;;;7.97;;
69900;SDS011;57183;50.930;5.406;2022-10-29T02:37:42;9.82;;;7.70;;
69900;SDS011;57183;50.930;5.406;2022-10-29T02:40:08;14.18;;;8.27;;
69900;SDS011;57183;50.930;5.406;2022-10-29T02:42:34;17.27;;;8.80;;
69900;SDS011;57183;50.930;5.406;2022-10-29T02:45:00;15.77;;;7.90;;
69900;SDS011;57183;50.930;5.406;2022-10-29T02:47:26;17.13;;;8.65;;
69900;SDS011;57183;50.930;5.406;2022-10-29T02:49:52;19.92;;;8.38;;
69900;SDS011;57183;50.930;5.406;2022-10-29T02:52:17;17.60;;;9.07;;
69900;SDS011;57183;50.930;5.406;2022-10-29T02:54:43;20.33;;;9.77;;
69900;SDS011;57183;50.930;5.406;2022-10-29T02:57:09;23.25;;;10.43;;
69900;SDS011;57183;50.930;5.406;2022-10-29T02:59:34;17.92;;;9.88;;
69900;SDS011;57183;50.930;5.406;2022-10-29T03:02:00;18.00;;;9.05;;
69900;SDS011;57183;50.930;5.406;2022-10-29T03:04:26;17.02;;;8.45;;
69900;SDS011;57183;50.930;5.406;2022-10-29T03:06:51;17.45;;;9.15;;
69900;SDS011;57183;50.930;5.406;2022-10-29T03:09:17;22.27;;;8.38;;
69900;SDS011;57183;50.930;5.406;2022-10-29T03:11:43;13.77;;;8.68;;
69900;SDS011;57183;50.930;5.406;2022-10-29T03:14:09;12.40;;;8.10;;
69900;SDS011;57183;50.930;5.406;2022-10-29T03:16:34;13.13;;;8.02;;
69900;SDS011;57183;50.930;5.406;2022-10-29T03:19:00;20.33;;;9.90;;
69900;SDS011;57183;50.930;5.406;2022-10-29T03:21:26;17.02;;;9.05;;
69900;SDS011;57183;50.930;5.406;2022-10-29T03:23:51;18.63;;;10.35;;
69900;SDS011;57183;50.930;5.406;2022-10-29T03:26:17;21.77;;;10.98;;
69900;SDS011;57183;50.930;5.406;2022-10-29T03:28:43;22.25;;;10.90;;
69900;SDS011;57183;50.930;5.406;2022-10-29T03:31:08;18.88;;;9.65;;
69900;SDS011;57183;50.930;5.406;2022-10-29T03:33:34;15.35;;;9.52;;
69900;SDS011;57183;50.930;5.406;2022-10-29T03:36:01;17.05;;;9.95;;
69900;SDS011;57183;50.930;5.406;2022-10-29T03:38:29;17.83;;;10.85;;
69900;SDS011;57183;50.930;5.406;2022-10-29T03:40:55;16.63;;;10.50;;
69900;SDS011;57183;50.930;5.406;2022-10-29T03:43:21;23.38;;;10.85;;
69900;SDS011;57183;50.930;5.406;2022-10-29T03:45:51;17.75;;;9.38;;
69900;SDS011;57183;50.930;5.406;2022-10-29T03:48:21;17.77;;;9.73;;
69900;SDS011;57183;50.930;5.406;2022-10-29T03:50:57;19.77;;;10.27;;
69900;SDS011;57183;50.930;5.406;2022-10-29T03:53:27;16.10;;;9.35;;
69900;SDS011;57183;50.930;5.406;2022-10-29T03:55:54;18.15;;;10.35;;
69900;SDS011;57183;50.930;5.406;2022-10-29T03:58:21;18.30;;;10.75;;
69900;SDS011;57183;50.930;5.406;2022-10-29T04:03:23;20.92;;;11.00;;
69900;SDS011;57183;50.930;5.406;2022-10-29T04:05:49;22.75;;;10.57;;
69900;SDS011;57183;50.930;5.406;2022-10-29T04:08:15;18.42;;;10.23;;
69900;SDS011;57183;50.930;5.406;2022-10-29T04:10:45;19.75;;;8.95;;
69900;SDS011;57183;50.930;5.406;2022-10-29T04:13:12;25.65;;;9.88;;
69900;SDS011;57183;50.930;5.406;2022-10-29T04:15:38;13.90;;;9.70;;
69900;SDS011;57183;50.930;5.406;2022-10-29T04:18:04;16.38;;;9.38;;
69900;SDS011;57183;50.930;5.406;2022-10-29T04:20:29;18.17;;;7.93;;
69900;SDS011;57183;50.930;5.406;2022-10-29T04:22:55;11.75;;;7.55;;
69900;SDS011;57183;50.930;5.406;2022-10-29T04:25:21;19.13;;;9.65;;
69900;SDS011;57183;50.930;5.406;2022-10-29T04:27:46;21.98;;;9.23;;
69900;SDS011;57183;50.930;5.406;2022-10-29T04:30:12;21.65;;;9.40;;
69900;SDS011;57183;50.930;5.406;2022-10-29T04:32:38;16.40;;;8.13;;
69900;SDS011;57183;50.930;5.406;2022-10-29T04:35:04;18.50;;;8.73;;
69900;SDS011;57183;50.930;5.406;2022-10-29T04:37:30;20.95;;;8.40;;
69900;SDS011;57183;50.930;5.406;2022-10-29T04:39:55;23.85;;;11.05;;
69900;SDS011;57183;50.930;5.406;2022-10-29T04:42:21;18.23;;;9.50;;
69900;SDS011;57183;50.930;5.406;2022-10-29T04:44:47;16.92;;;10.50;;
69900;SDS011;57183;50.930;5.406;2022-10-29T04:47:12;16.85;;;10.45;;
69900;SDS011;57183;50.930;5.406;2022-10-29T04:49:38;18.75;;;9.55;;
69900;SDS011;57183;50.930;5.406;2022-10-29T04:52:04;19.75;;;9.35;;
69900;SDS011;57183;50.930;5.406;2022-10-29T04:54:29;15.73;;;8.18;;
69900;SDS011;57183;50.930;5.406;2022-10-29T04:56:55;14.25;;;9.05;;
69900;SDS011;57183;50.930;5.406;2022-10-29T04:59:21;21.20;;;9.07;;
69900;SDS011;57183;50.930;5.406;2022-10-29T05:01:47;19.40;;;8.55;;
69900;SDS011;57183;50.930;5.406;2022-10-29T05:04:12;16.52;;;8.90;;
69900;SDS011;57183;50.930;5.406;2022-10-29T05:06:38;17.15;;;8.25;;
69900;SDS011;57183;50.930;5.406;2022-10-29T05:09:03;14.68;;;8.50;;
69900;SDS011;57183;50.930;5.406;2022-10-29T05:11:29;15.60;;;8.20;;
69900;SDS011;57183;50.930;5.406;2022-10-29T05:13:55;16.45;;;9.05;;
69900;SDS011;57183;50.930;5.406;2022-10-29T05:16:20;17.30;;;9.57;;
69900;SDS011;57183;50.930;5.406;2022-10-29T05:18:46;13.40;;;8.25;;
69900;SDS011;57183;50.930;5.406;2022-10-29T05:21:12;16.30;;;9.18;;
69900;SDS011;57183;50.930;5.406;2022-10-29T05:23:38;16.00;;;8.55;;
69900;SDS011;57183;50.930;5.406;2022-10-29T05:26:03;22.10;;;8.88;;
69900;SDS011;57183;50.930;5.406;2022-10-29T05:28:29;18.88;;;8.00;;
69900;SDS011;57183;50.930;5.406;2022-10-29T05:30:55;19.10;;;9.85;;
69900;SDS011;57183;50.930;5.406;2022-10-29T05:33:24;21.73;;;8.45;;
69900;SDS011;57183;50.930;5.406;2022-10-29T05:35:49;22.45;;;8.52;;
69900;SDS011;57183;50.930;5.406;2022-10-29T05:38:15;14.80;;;8.45;;
69900;SDS011;57183;50.930;5.406;2022-10-29T05:40:42;15.85;;;8.85;;
69900;SDS011;57183;50.930;5.406;2022-10-29T05:43:09;11.60;;;8.07;;
69900;SDS011;57183;50.930;5.406;2022-10-29T05:45:36;17.75;;;8.85;;
69900;SDS011;57183;50.930;5.406;2022-10-29T05:48:02;13.10;;;8.43;;
69900;SDS011;57183;50.930;5.406;2022-10-29T05:50:29;14.57;;;8.13;;
69900;SDS011;57183;50.930;5.406;2022-10-29T05:52:59;23.08;;;8.77;;
69900;SDS011;57183;50.930;5.406;2022-10-29T05:55:27;15.48;;;8.60;;
69900;SDS011;57183;50.930;5.406;2022-10-29T05:57:54;15.55;;;7.25;;
69900;SDS011;57183;50.930;5.406;2022-10-29T06:00:25;19.38;;;7.07;;
69900;SDS011;57183;50.930;5.406;2022-10-29T06:02:52;15.25;;;8.32;;
69900;SDS011;57183;50.930;5.406;2022-10-29T06:05:17;15.43;;;8.13;;
69900;SDS011;57183;50.930;5.406;2022-10-29T06:07:43;18.70;;;8.13;;
69900;SDS011;57183;50.930;5.406;2022-10-29T06:10:09;12.32;;;8.63;;
69900;SDS011;57183;50.930;5.406;2022-10-29T06:12:35;14.27;;;7.68;;
69900;SDS011;57183;50.930;5.406;2022-10-29T06:15:01;20.85;;;9.27;;
69900;SDS011;57183;50.930;5.406;2022-10-29T06:17:26;17.23;;;7.88;;
69900;SDS011;57183;50.930;5.406;2022-10-29T06:19:52;18.70;;;8.15;;
69900;SDS011;57183;50.930;5.406;2022-10-29T06:22:18;13.60;;;7.20;;
69900;SDS011;57183;50.930;5.406;2022-10-29T06:24:43;21.90;;;8.35;;
69900;SDS011;57183;50.930;5.406;2022-10-29T06:27:09;15.48;;;8.30;;
69900;SDS011;57183;50.930;5.406;2022-10-29T06:29:35;17.15;;;7.70;;
69900;SDS011;57183;50.930;5.406;2022-10-29T06:32:00;17.55;;;8.40;;
69900;SDS011;57183;50.930;5.406;2022-10-29T06:34:26;12.80;;;7.35;;
69900;SDS011;57183;50.930;5.406;2022-10-29T06:36:52;16.75;;;8.18;;
69900;SDS011;57183;50.930;5.406;2022-10-29T06:39:19;12.80;;;7.97;;
69900;SDS011;57183;50.930;5.406;2022-10-29T06:41:45;18.75;;;9.88;;
69900;SDS011;57183;50.930;5.406;2022-10-29T06:44:10;19.27;;;8.85;;
69900;SDS011;57183;50.930;5.406;2022-10-29T06:46:36;16.70;;;8.45;;
69900;SDS011;57183;50.930;5.406;2022-10-29T06:49:03;14.73;;;7.97;;
69900;SDS011;57183;50.930;5.406;2022-10-29T06:51:28;17.25;;;8.38;;
69900;SDS011;57183;50.930;5.406;2022-10-29T06:53:54;14.57;;;7.03;;
69900;SDS011;57183;50.930;5.406;2022-10-29T06:56:20;18.10;;;8.45;;
69900;SDS011;57183;50.930;5.406;2022-10-29T06:58:46;16.48;;;8.32;;
69900;SDS011;57183;50.930;5.406;2022-10-29T07:01:11;16.95;;;9.23;;
69900;SDS011;57183;50.930;5.406;2022-10-29T07:03:37;15.98;;;7.80;;
69900;SDS011;57183;50.930;5.406;2022-10-29T07:06:03;14.95;;;7.57;;
69900;SDS011;57183;50.930;5.406;2022-10-29T07:08:29;29.48;;;8.18;;
69900;SDS011;57183;50.930;5.406;2022-10-29T07:10:54;15.00;;;7.32;;
69900;SDS011;57183;50.930;5.406;2022-10-29T07:13:20;10.65;;;6.05;;
69900;SDS011;57183;50.930;5.406;2022-10-29T07:15:46;16.17;;;7.13;;
69900;SDS011;57183;50.930;5.406;2022-10-29T07:18:12;14.40;;;7.15;;
69900;SDS011;57183;50.930;5.406;2022-10-29T07:20:39;15.98;;;6.88;;
69900;SDS011;57183;50.930;5.406;2022-10-29T07:23:07;13.07;;;7.05;;
69900;SDS011;57183;50.930;5.406;2022-10-29T07:25:34;14.52;;;6.72;;
69900;SDS011;57183;50.930;5.406;2022-10-29T07:28:20;12.82;;;6.82;;
69900;SDS011;57183;50.930;5.406;2022-10-29T07:30:48;8.45;;;5.65;;
69900;SDS011;57183;50.930;5.406;2022-10-29T07:33:14;11.07;;;5.93;;
69900;SDS011;57183;50.930;5.406;2022-10-29T07:35:41;14.18;;;6.75;;
69900;SDS011;57183;50.930;5.406;2022-10-29T07:38:08;11.05;;;6.00;;
69900;SDS011;57183;50.930;5.406;2022-10-29T07:40:35;15.68;;;6.22;;
69900;SDS011;57183;50.930;5.406;2022-10-29T07:43:01;15.85;;;6.93;;
69900;SDS011;57183;50.930;5.406;2022-10-29T07:45:27;11.20;;;6.40;;
69900;SDS011;57183;50.930;5.406;2022-10-29T07:48:03;14.57;;;6.55;;
69900;SDS011;57183;50.930;5.406;2022-10-29T07:50:31;11.50;;;6.35;;
69900;SDS011;57183;50.930;5.406;2022-10-29T07:52:58;16.20;;;6.07;;
69900;SDS011;57183;50.930;5.406;2022-10-29T07:55:25;15.20;;;6.35;;
69900;SDS011;57183;50.930;5.406;2022-10-29T07:57:55;17.83;;;6.75;;
69900;SDS011;57183;50.930;5.406;2022-10-29T08:00:23;9.27;;;5.93;;
69900;SDS011;57183;50.930;5.406;2022-10-29T08:02:51;10.57;;;5.82;;
69900;SDS011;57183;50.930;5.406;2022-10-29T08:05:18;19.05;;;6.43;;
69900;SDS011;57183;50.930;5.406;2022-10-29T08:07:44;18.17;;;6.10;;
69900;SDS011;57183;50.930;5.406;2022-10-29T08:10:09;16.80;;;5.28;;
69900;SDS011;57183;50.930;5.406;2022-10-29T08:12:35;14.90;;;5.95;;
69900;SDS011;57183;50.930;5.406;2022-10-29T08:15:01;15.00;;;5.93;;
69900;SDS011;57183;50.930;5.406;2022-10-29T08:17:29;14.52;;;6.15;;
69900;SDS011;57183;50.930;5.406;2022-10-29T08:19:55;9.25;;;5.10;;
69900;SDS011;57183;50.930;5.406;2022-10-29T08:22:21;11.63;;;5.65;;
69900;SDS011;57183;50.930;5.406;2022-10-29T08:24:47;9.32;;;5.25;;
69900;SDS011;57183;50.930;5.406;2022-10-29T08:27:13;11.25;;;4.55;;
69900;SDS011;57183;50.930;5.406;2022-10-29T08:29:38;10.20;;;4.82;;
69900;SDS011;57183;50.930;5.406;2022-10-29T08:32:04;14.07;;;5.25;;
69900;SDS011;57183;50.930;5.406;2022-10-29T08:34:30;12.52;;;4.68;;
69900;SDS011;57183;50.930;5.406;2022-10-29T08:36:56;9.18;;;4.80;;
69900;SDS011;57183;50.930;5.406;2022-10-29T08:39:21;12.15;;;4.63;;
69900;SDS011;57183;50.930;5.406;2022-10-29T08:47:12;6.88;;;3.92;;
69900;SDS011;57183;50.930;5.406;2022-10-29T08:52:30;17.15;;;5.82;;
69900;SDS011;57183;50.930;5.406;2022-10-29T08:57:42;10.40;;;4.60;;
69900;SDS011;57183;50.930;5.406;2022-10-29T09:00:16;9.57;;;4.65;;
69900;SDS011;57183;50.930;5.406;2022-10-29T09:02:51;9.63;;;4.82;;
69900;SDS011;57183;50.930;5.406;2022-10-29T09:05:23;15.50;;;5.45;;
69900;SDS011;57183;50.930;5.406;2022-10-29T09:20:52;9.65;;;4.80;;
69900;SDS011;57183;50.930;5.406;2022-10-29T09:26:11;14.85;;;5.00;;
69900;SDS011;57183;50.930;5.406;2022-10-29T09:34:01;11.65;;;4.93;;
69900;SDS011;57183;50.930;5.406;2022-10-29T09:39:02;13.40;;;5.45;;
69900;SDS011;57183;50.930;5.406;2022-10-29T09:41:38;13.45;;;5.00;;
69900;SDS011;57183;50.930;5.406;2022-10-29T09:52:25;16.92;;;4.90;;
69900;SDS011;57183;50.930;5.406;2022-10-29T09:54:57;8.85;;;4.57;;
69900;SDS011;57183;50.930;5.406;2022-10-29T09:57:26;18.40;;;4.30;;
69900;SDS011;57183;50.930;5.406;2022-10-29T09:59:57;20.80;;;4.55;;
69900;SDS011;57183;50.930;5.406;2022-10-29T10:02:39;17.38;;;4.75;;
69900;SDS011;57183;50.930;5.406;2022-10-29T10:07:36;12.23;;;4.18;;
69900;SDS011;57183;50.930;5.406;2022-10-29T10:10:02;13.95;;;4.65;;
69900;SDS011;57183;50.930;5.406;2022-10-29T10:18:01;10.77;;;4.63;;
69900;SDS011;57183;50.930;5.406;2022-10-29T10:20:35;10.90;;;3.95;;
69900;SDS011;57183;50.930;5.406;2022-10-29T10:25:45;16.45;;;4.05;;
69900;SDS011;57183;50.930;5.406;2022-10-29T10:28:28;8.70;;;4.53;;
69900;SDS011;57183;50.930;5.406;2022-10-29T10:31:13;12.85;;;4.18;;
69900;SDS011;57183;50.930;5.406;2022-10-29T10:33:47;13.80;;;3.63;;
69900;SDS011;57183;50.930;5.406;2022-10-29T10:36:17;9.70;;;4.05;;
69900;SDS011;57183;50.930;5.406;2022-10-29T10:38:48;11.30;;;4.07;;
69900;SDS011;57183;50.930;5.406;2022-10-29T10:41:20;7.95;;;4.50;;
69900;SDS011;57183;50.930;5.406;2022-10-29T10:44:05;13.95;;;4.72;;
69900;SDS011;57183;50.930;5.406;2022-10-29T10:46:33;9.70;;;3.85;;
69900;SDS011;57183;50.930;5.406;2022-10-29T10:49:47;15.23;;;3.97;;
69900;SDS011;57183;50.930;5.406;2022-10-29T10:51:58;9.32;;;3.80;;
69900;SDS011;57183;50.930;5.406;2022-10-29T11:05:19;10.82;;;3.45;;
69900;SDS011;57183;50.930;5.406;2022-10-29T11:07:48;13.32;;;3.25;;
69900;SDS011;57183;50.930;5.406;2022-10-29T11:10:24;17.65;;;4.18;;
69900;SDS011;57183;50.930;5.406;2022-10-29T11:12:59;9.25;;;3.28;;
69900;SDS011;57183;50.930;5.406;2022-10-29T11:18:03;11.20;;;3.30;;
69900;SDS011;57183;50.930;5.406;2022-10-29T11:20:37;9.52;;;3.85;;
69900;SDS011;57183;50.930;5.406;2022-10-29T11:25:38;14.35;;;3.80;;
69900;SDS011;57183;50.930;5.406;2022-10-29T11:28:20;9.65;;;3.28;;
69900;SDS011;57183;50.930;5.406;2022-10-29T11:30:56;17.15;;;4.18;;
69900;SDS011;57183;50.930;5.406;2022-10-29T11:36:35;10.98;;;3.33;;
69900;SDS011;57183;50.930;5.406;2022-10-29T11:39:08;8.90;;;2.70;;
69900;SDS011;57183;50.930;5.406;2022-10-29T11:41:43;20.25;;;3.90;;
69900;SDS011;57183;50.930;5.406;2022-10-29T11:44:16;9.15;;;2.80;;
69900;SDS011;57183;50.930;5.406;2022-10-29T11:52:24;12.93;;;3.30;;
69900;SDS011;57183;50.930;5.406;2022-10-29T11:55:17;12.98;;;3.20;;
69900;SDS011;57183;50.930;5.406;2022-10-29T11:58:05;11.68;;;2.97;;
69900;SDS011;57183;50.930;5.406;2022-10-29T12:00:52;11.32;;;3.30;;
69900;SDS011;57183;50.930;5.406;2022-10-29T12:06:14;8.93;;;2.85;;
69900;SDS011;57183;50.930;5.406;2022-10-29T12:12:08;7.57;;;2.47;;
69900;SDS011;57183;50.930;5.406;2022-10-29T12:14:57;7.60;;;3.63;;
69900;SDS011;57183;50.930;5.406;2022-10-29T12:17:38;7.82;;;2.90;;
69900;SDS011;57183;50.930;5.406;2022-10-29T12:23:28;12.55;;;3.13;;
69900;SDS011;57183;50.930;5.406;2022-10-29T12:26:18;10.85;;;3.90;;
69900;SDS011;57183;50.930;5.406;2022-10-29T12:36:34;15.80;;;4.20;;
69900;SDS011;57183;50.930;5.406;2022-10-29T12:39:13;13.82;;;3.35;;
69900;SDS011;57183;50.930;5.406;2022-10-29T12:41:53;15.13;;;3.35;;
69900;SDS011;57183;50.930;5.406;2022-10-29T12:44:28;9.30;;;2.35;;
69900;SDS011;57183;50.930;5.406;2022-10-29T12:54:52;6.00;;;3.05;;
69900;SDS011;57183;50.930;5.406;2022-10-29T12:57:29;9.23;;;2.97;;
69900;SDS011;57183;50.930;5.406;2022-10-29T13:02:47;11.45;;;3.85;;
69900;SDS011;57183;50.930;5.406;2022-10-29T13:05:16;11.45;;;3.72;;
69900;SDS011;57183;50.930;5.406;2022-10-29T13:15:44;13.73;;;3.45;;
69900;SDS011;57183;50.930;5.406;2022-10-29T13:18:31;10.73;;;4.55;;
69900;SDS011;57183;50.930;5.406;2022-10-29T13:21:03;13.85;;;3.53;;
69900;SDS011;57183;50.930;5.406;2022-10-29T13:23:30;10.02;;;2.80;;
69900;SDS011;57183;50.930;5.406;2022-10-29T13:26:03;12.18;;;3.17;;
69900;SDS011;57183;50.930;5.406;2022-10-29T13:35:59;13.15;;;3.05;;
69900;SDS011;57183;50.930;5.406;2022-10-29T13:38:39;10.38;;;3.75;;
69900;SDS011;57183;50.930;5.406;2022-10-29T13:41:15;12.00;;;3.33;;
69900;SDS011;57183;50.930;5.406;2022-10-29T13:44:09;8.30;;;3.42;;
69900;SDS011;57183;50.930;5.406;2022-10-29T13:46:55;11.90;;;3.05;;
69900;SDS011;57183;50.930;5.406;2022-10-29T13:49:28;9.98;;;3.30;;
69900;SDS011;57183;50.930;5.406;2022-10-29T13:51:58;11.35;;;3.95;;
69900;SDS011;57183;50.930;5.406;2022-10-29T13:54:25;7.32;;;3.20;;
69900;SDS011;57183;50.930;5.406;2022-10-29T13:59:56;9.95;;;3.75;;
69900;SDS011;57183;50.930;5.406;2022-10-29T14:02:25;8.20;;;3.85;;
69900;SDS011;57183;50.930;5.406;2022-10-29T14:05:02;10.35;;;3.08;;
69900;SDS011;57183;50.930;5.406;2022-10-29T14:11:06;12.85;;;3.22;;
69900;SDS011;57183;50.930;5.406;2022-10-29T14:16:07;10.75;;;3.40;;
69900;SDS011;57183;50.930;5.406;2022-10-29T14:21:04;12.57;;;3.50;;
69900;SDS011;57183;50.930;5.406;2022-10-29T14:23:31;12.60;;;2.97;;
69900;SDS011;57183;50.930;5.406;2022-10-29T14:26:00;10.23;;;3.08;;
69900;SDS011;57183;50.930;5.406;2022-10-29T14:28:28;7.28;;;3.47;;
69900;SDS011;57183;50.930;5.406;2022-10-29T14:31:06;12.93;;;3.42;;
69900;SDS011;57183;50.930;5.406;2022-10-29T14:33:42;10.02;;;3.60;;
69900;SDS011;57183;50.930;5.406;2022-10-29T14:41:29;12.68;;;3.97;;
69900;SDS011;57183;50.930;5.406;2022-10-29T14:46:28;5.93;;;3.38;;
69900;SDS011;57183;50.930;5.406;2022-10-29T14:49:01;7.78;;;3.85;;
69900;SDS011;57183;50.930;5.406;2022-10-29T14:51:38;15.27;;;3.30;;
69900;SDS011;57183;50.930;5.406;2022-10-29T14:54:16;16.88;;;3.90;;
69900;SDS011;57183;50.930;5.406;2022-10-29T14:56:47;10.32;;;3.90;;
69900;SDS011;57183;50.930;5.406;2022-10-29T14:59:18;17.17;;;4.72;;
69900;SDS011;57183;50.930;5.406;2022-10-29T15:01:48;10.57;;;3.60;;
69900;SDS011;57183;50.930;5.406;2022-10-29T15:04:19;10.02;;;4.22;;
69900;SDS011;57183;50.930;5.406;2022-10-29T15:06:50;11.38;;;4.05;;
69900;SDS011;57183;50.930;5.406;2022-10-29T15:09:21;10.15;;;4.38;;
69900;SDS011;57183;50.930;5.406;2022-10-29T15:14:48;14.82;;;4.40;;
69900;SDS011;57183;50.930;5.406;2022-10-29T15:17:25;12.00;;;3.92;;
69900;SDS011;57183;50.930;5.406;2022-10-29T15:19:55;15.10;;;4.30;;
69900;SDS011;57183;50.930;5.406;2022-10-29T15:22:25;14.77;;;4.13;;
69900;SDS011;57183;50.930;5.406;2022-10-29T15:24:57;8.80;;;3.78;;
69900;SDS011;57183;50.930;5.406;2022-10-29T15:27:24;12.55;;;4.68;;
69900;SDS011;57183;50.930;5.406;2022-10-29T15:29:51;13.77;;;5.18;;
69900;SDS011;57183;50.930;5.406;2022-10-29T15:32:17;17.50;;;5.60;;
69900;SDS011;57183;50.930;5.406;2022-10-29T15:34:47;17.77;;;5.53;;
69900;SDS011;57183;50.930;5.406;2022-10-29T15:42:28;15.95;;;5.50;;
69900;SDS011;57183;50.930;5.406;2022-10-29T15:47:31;11.77;;;4.90;;
69900;SDS011;57183;50.930;5.406;2022-10-29T15:49:57;10.15;;;4.88;;
69900;SDS011;57183;50.930;5.406;2022-10-29T15:52:25;15.32;;;5.80;;
69900;SDS011;57183;50.930;5.406;2022-10-29T15:54:57;15.93;;;5.47;;
69900;SDS011;57183;50.930;5.406;2022-10-29T15:57:24;15.50;;;4.60;;
69900;SDS011;57183;50.930;5.406;2022-10-29T15:59:50;11.88;;;4.90;;
69900;SDS011;57183;50.930;5.406;2022-10-29T16:02:21;13.48;;;5.32;;
69900;SDS011;57183;50.930;5.406;2022-10-29T16:04:49;15.40;;;5.75;;
69900;SDS011;57183;50.930;5.406;2022-10-29T16:07:14;13.15;;;5.80;;
69900;SDS011;57183;50.930;5.406;2022-10-29T16:09:42;13.93;;;5.35;;
69900;SDS011;57183;50.930;5.406;2022-10-29T16:12:13;16.20;;;5.90;;
69900;SDS011;57183;50.930;5.406;2022-10-29T16:14:39;14.70;;;4.43;;
69900;SDS011;57183;50.930;5.406;2022-10-29T16:17:09;12.65;;;4.70;;
69900;SDS011;57183;50.930;5.406;2022-10-29T16:19:43;12.90;;;5.85;;
69900;SDS011;57183;50.930;5.406;2022-10-29T16:22:10;14.57;;;7.47;;
69900;SDS011;57183;50.930;5.406;2022-10-29T16:24:38;16.35;;;7.68;;
69900;SDS011;57183;50.930;5.406;2022-10-29T16:27:08;18.85;;;7.78;;
69900;SDS011;57183;50.930;5.406;2022-10-29T16:29:38;16.58;;;9.52;;
69900;SDS011;57183;50.930;5.406;2022-10-29T16:32:04;16.08;;;7.82;;
69900;SDS011;57183;50.930;5.406;2022-10-29T16:34:30;12.32;;;7.63;;
69900;SDS011;57183;50.930;5.406;2022-10-29T16:36:55;10.85;;;6.85;;
69900;SDS011;57183;50.930;5.406;2022-10-29T16:39:21;15.77;;;7.85;;
69900;SDS011;57183;50.930;5.406;2022-10-29T16:41:47;19.88;;;7.53;;
69900;SDS011;57183;50.930;5.406;2022-10-29T16:44:12;12.95;;;6.97;;
69900;SDS011;57183;50.930;5.406;2022-10-29T16:46:38;21.02;;;7.80;;
69900;SDS011;57183;50.930;5.406;2022-10-29T16:49:04;18.90;;;8.77;;
69900;SDS011;57183;50.930;5.406;2022-10-29T16:51:29;17.27;;;7.53;;
69900;SDS011;57183;50.930;5.406;2022-10-29T16:53:55;17.65;;;9.18;;
69900;SDS011;57183;50.930;5.406;2022-10-29T16:56:20;19.95;;;8.50;;
69900;SDS011;57183;50.930;5.406;2022-10-29T16:58:46;23.75;;;8.45;;
69900;SDS011;57183;50.930;5.406;2022-10-29T17:01:12;22.10;;;6.82;;
69900;SDS011;57183;50.930;5.406;2022-10-29T17:03:37;14.68;;;7.03;;
69900;SDS011;57183;50.930;5.406;2022-10-29T17:06:04;16.83;;;6.95;;
69900;SDS011;57183;50.930;5.406;2022-10-29T17:08:32;19.05;;;9.10;;
69900;SDS011;57183;50.930;5.406;2022-10-29T17:10:59;17.35;;;8.15;;
69900;SDS011;57183;50.930;5.406;2022-10-29T17:13:25;15.98;;;8.20;;
69900;SDS011;57183;50.930;5.406;2022-10-29T17:15:51;20.20;;;8.68;;
69900;SDS011;57183;50.930;5.406;2022-10-29T17:18:17;11.93;;;7.60;;
69900;SDS011;57183;50.930;5.406;2022-10-29T17:20:52;13.80;;;8.05;;
69900;SDS011;57183;50.930;5.406;2022-10-29T17:23:22;12.65;;;8.88;;
69900;SDS011;57183;50.930;5.406;2022-10-29T17:25:54;14.15;;;6.82;;
69900;SDS011;57183;50.930;5.406;2022-10-29T17:28:20;15.10;;;7.88;;
69900;SDS011;57183;50.930;5.406;2022-10-29T17:30:47;13.38;;;7.07;;
69900;SDS011;57183;50.930;5.406;2022-10-29T17:33:13;16.48;;;10.18;;
69900;SDS011;57183;50.930;5.406;2022-10-29T17:35:40;19.02;;;9.52;;
69900;SDS011;57183;50.930;5.406;2022-10-29T17:38:06;19.17;;;11.60;;
69900;SDS011;57183;50.930;5.406;2022-10-29T17:40:31;16.17;;;9.65;;
69900;SDS011;57183;50.930;5.406;2022-10-29T17:42:57;13.02;;;8.25;;
69900;SDS011;57183;50.930;5.406;2022-10-29T17:45:23;13.02;;;8.27;;
69900;SDS011;57183;50.930;5.406;2022-10-29T17:47:55;13.60;;;7.40;;
69900;SDS011;57183;50.930;5.406;2022-10-29T17:50:21;11.80;;;7.50;;